Time,TemperatureF,DewpointF,PressureIn,WindDirection,WindDirectionDegrees,WindSpeedMPH,WindSpeedGustMPH,Humidity,HourlyPrecipIn,Conditions,Clouds,dailyrainin,SoftwareType,DateUTC
2013-02-22 00:02:00,20.8,18.7,30.06,South,182,1.0,4.0,91,0.00,,,0.05,meteohub,2013-02-21 23:02:00,
2013-02-22 00:07:00,20.8,18.7,30.06,SSW,195,1.0,4.0,91,0.00,,,0.05,meteohub,2013-02-21 23:07:00,
2013-02-22 00:12:00,20.8,18.7,30.06,ENE,71,1.0,4.0,91,0.00,,,0.05,meteohub,2013-02-21 23:12:00,
2013-02-22 00:17:00,20.8,18.7,30.05,South,170,2.0,4.0,91,0.00,,,0.05,meteohub,2013-02-21 23:17:00,
2013-02-22 00:27:00,20.8,18.7,30.05,SW,221,0.0,4.0,91,0.00,,,0.05,meteohub,2013-02-21 23:27:00,
2013-02-22 00:32:00,20.8,18.7,30.05,SSW,196,1.0,4.0,91,0.00,,,0.05,meteohub,2013-02-21 23:32:00,
2013-02-22 00:37:00,20.8,18.7,30.05,SSW,198,0.0,3.0,91,0.00,,,0.05,meteohub,2013-02-21 23:37:00,
2013-02-22 00:42:00,20.8,18.7,30.04,South,190,1.0,2.0,91,0.00,,,0.05,meteohub,2013-02-21 23:42:00,
2013-02-22 00:47:00,20.8,18.7,30.04,South,183,3.0,3.0,91,0.00,,,0.05,meteohub,2013-02-21 23:47:00,
2013-02-22 00:52:00,20.8,18.7,30.04,South,186,0.0,4.0,91,0.00,,,0.05,meteohub,2013-02-21 23:52:00,
2013-02-22 00:57:00,20.8,18.7,30.04,SW,232,0.0,4.0,91,0.00,,,0.05,meteohub,2013-02-21 23:57:00,
2013-02-22 01:02:00,20.8,18.7,30.04,South,182,0.0,4.0,91,0.00,,,0.05,meteohub,2013-02-22 00:02:00,
2013-02-22 01:07:00,20.8,18.7,30.04,NNW,348,1.0,4.0,91,0.00,,,0.00,meteohub,2013-02-22 00:07:00,
2013-02-22 01:12:00,20.8,18.7,30.04,NE,45,1.0,4.0,91,0.00,,,0.00,meteohub,2013-02-22 00:12:00,
2013-02-22 01:22:00,20.8,18.7,30.04,WSW,243,0.0,4.0,91,0.00,,,0.00,meteohub,2013-02-22 00:22:00,
2013-02-22 01:32:00,20.8,18.7,30.03,South,189,0.0,2.0,91,0.00,,,0.00,meteohub,2013-02-22 00:32:00,
2013-02-22 01:37:00,20.8,18.7,30.03,SSE,159,2.0,2.0,91,0.00,,,0.00,meteohub,2013-02-22 00:37:00,
2013-02-22 01:42:00,20.8,18.7,30.03,South,178,0.0,3.0,91,0.00,,,0.00,meteohub,2013-02-22 00:42:00,
2013-02-22 01:47:00,20.8,18.7,30.03,South,169,0.0,3.0,91,0.00,,,0.00,meteohub,2013-02-22 00:47:00,
2013-02-22 01:52:00,20.8,18.7,30.03,NNW,335,0.0,4.0,91,0.00,,,0.00,meteohub,2013-02-22 00:52:00,
2013-02-22 01:57:00,20.8,18.7,30.03,South,190,1.0,4.0,91,0.00,,,0.00,meteohub,2013-02-22 00:57:00,
2013-02-22 02:02:00,20.8,18.7,30.03,ENE,61,1.0,2.0,91,0.00,,,0.00,meteohub,2013-02-22 01:02:00,
2013-02-22 02:07:00,20.8,18.9,30.03,SSW,193,1.0,2.0,92,0.00,,,0.00,meteohub,2013-02-22 01:07:00,
2013-02-22 02:17:00,20.8,18.9,30.03,SW,234,0.0,2.0,92,0.00,,,0.00,meteohub,2013-02-22 01:17:00,
2013-02-22 02:22:00,20.8,18.9,30.03,North,355,2.0,2.0,92,0.00,,,0.00,meteohub,2013-02-22 01:22:00,
2013-02-22 02:27:00,20.8,18.9,30.03,NNW,342,4.0,4.0,92,0.00,,,0.00,meteohub,2013-02-22 01:27:00,
2013-02-22 02:32:00,20.8,18.9,30.03,NNW,329,4.0,5.0,92,0.00,,,0.00,meteohub,2013-02-22 01:32:00,
2013-02-22 02:37:00,20.7,18.1,30.02,WNW,300,0.0,6.0,90,0.00,,,0.00,meteohub,2013-02-22 01:37:00,
2013-02-22 02:42:00,20.7,18.1,30.02,North,355,2.0,6.0,90,0.00,,,0.00,meteohub,2013-02-22 01:42:00,
2013-02-22 02:52:00,20.5,17.8,30.02,NNW,340,2.0,5.0,89,0.00,,,0.00,meteohub,2013-02-22 01:52:00,
2013-02-22 02:57:00,20.5,17.8,30.02,NW,311,1.0,5.0,89,0.00,,,0.00,meteohub,2013-02-22 01:57:00,
2013-02-22 03:02:00,20.1,17.1,30.01,North,351,1.0,6.0,88,0.00,,,0.00,meteohub,2013-02-22 02:02:00,
2013-02-22 03:07:00,20.1,17.1,30.01,NNW,344,5.0,6.0,88,0.00,,,0.00,meteohub,2013-02-22 02:07:00,
2013-02-22 03:12:00,19.9,16.9,30.01,North,11,2.0,6.0,88,0.00,,,0.00,meteohub,2013-02-22 02:12:00,
2013-02-22 03:17:00,19.9,16.9,30.01,NNW,346,2.0,6.0,88,0.00,,,0.00,meteohub,2013-02-22 02:17:00,
2013-02-22 03:22:00,19.9,16.9,30.01,NNW,346,0.0,6.0,88,0.00,,,0.00,meteohub,2013-02-22 02:22:00,
2013-02-22 03:32:00,19.9,17.2,30.00,NNW,346,1.0,4.0,89,0.00,,,0.00,meteohub,2013-02-22 02:32:00,
2013-02-22 03:42:00,19.8,17.1,30.00,SSW,211,0.0,2.0,89,0.00,,,0.00,meteohub,2013-02-22 02:42:00,
2013-02-22 03:47:00,19.8,17.2,30.00,SSW,211,0.0,2.0,90,0.00,,,0.00,meteohub,2013-02-22 02:47:00,
2013-02-22 03:52:00,19.8,17.2,30.00,North,355,2.0,2.0,90,0.00,,,0.00,meteohub,2013-02-22 02:52:00,
2013-02-22 04:02:00,19.8,17.2,30.00,North,11,1.0,5.0,90,0.00,,,0.00,meteohub,2013-02-22 03:02:00,
2013-02-22 04:07:00,19.8,17.2,29.99,NNW,331,0.0,5.0,90,0.00,,,0.00,meteohub,2013-02-22 03:07:00,
2013-02-22 04:12:00,19.6,17.1,29.99,NNW,343,0.0,5.0,90,0.00,,,0.00,meteohub,2013-02-22 03:12:00,
2013-02-22 04:17:00,19.6,17.1,29.99,NNW,343,0.0,4.0,90,0.00,,,0.00,meteohub,2013-02-22 03:17:00,
2013-02-22 04:22:00,19.6,17.1,29.99,NNW,347,2.0,2.0,90,0.00,,,0.00,meteohub,2013-02-22 03:22:00,
2013-02-22 04:27:00,19.6,17.1,29.99,NNW,347,0.0,2.0,90,0.00,,,0.00,meteohub,2013-02-22 03:27:00,
2013-02-22 04:32:00,19.6,17.1,29.99,West,271,1.0,3.0,90,0.00,,,0.00,meteohub,2013-02-22 03:32:00,
2013-02-22 04:37:00,19.6,17.1,29.99,South,183,0.0,3.0,90,0.00,,,0.00,meteohub,2013-02-22 03:37:00,
2013-02-22 04:47:00,19.6,17.4,29.99,SSE,155,1.0,2.0,91,0.00,,,0.00,meteohub,2013-02-22 03:47:00,
2013-02-22 04:52:00,19.6,17.4,29.99,NNW,328,0.0,2.0,91,0.00,,,0.00,meteohub,2013-02-22 03:52:00,
2013-02-22 04:57:00,19.6,17.4,29.99,NNW,341,0.0,2.0,91,0.00,,,0.00,meteohub,2013-02-22 03:57:00,
2013-02-22 05:02:00,19.6,17.4,29.99,SSW,192,2.0,4.0,91,0.00,,,0.00,meteohub,2013-02-22 04:02:00,
2013-02-22 05:07:00,19.4,17.2,29.99,NNE,16,0.0,4.0,91,0.00,,,0.00,meteohub,2013-02-22 04:07:00,
2013-02-22 05:12:00,19.6,17.4,29.99,NE,34,0.0,4.0,91,0.00,,,0.00,meteohub,2013-02-22 04:12:00,
2013-02-22 05:22:00,19.4,17.2,29.99,South,169,3.0,3.0,91,0.00,,,0.00,meteohub,2013-02-22 04:22:00,
2013-02-22 05:32:00,19.2,17.1,29.99,SW,217,0.0,4.0,91,0.00,,,0.00,meteohub,2013-02-22 04:32:00,
2013-02-22 05:37:00,19.2,17.1,29.99,SSW,203,0.0,4.0,91,0.00,,,0.00,meteohub,2013-02-22 04:37:00,
2013-02-22 05:42:00,19.2,17.1,29.99,South,189,1.0,3.0,91,0.00,,,0.00,meteohub,2013-02-22 04:42:00,
2013-02-22 05:47:00,19.0,16.9,29.99,South,173,0.0,3.0,91,0.00,,,0.00,meteohub,2013-02-22 04:47:00,
2013-02-22 05:52:00,18.9,16.7,29.99,South,181,2.0,5.0,91,0.00,,,0.00,meteohub,2013-02-22 04:52:00,
2013-02-22 05:57:00,18.9,16.7,29.99,SSW,202,1.0,5.0,91,0.00,,,0.00,meteohub,2013-02-22 04:57:00,
2013-02-22 06:02:00,18.9,16.9,29.99,SSW,200,1.0,4.0,92,0.00,,,0.00,meteohub,2013-02-22 05:02:00,
2013-02-22 06:07:00,18.9,16.9,29.99,South,173,0.0,3.0,92,0.00,,,0.00,meteohub,2013-02-22 05:07:00,
2013-02-22 06:12:00,18.9,16.9,29.99,NNW,333,0.0,4.0,92,0.00,,,0.00,meteohub,2013-02-22 05:12:00,
2013-02-22 06:17:00,18.9,16.9,29.99,North,5,1.0,4.0,92,0.00,,,0.00,meteohub,2013-02-22 05:17:00,
2013-02-22 06:22:00,18.9,16.9,29.99,East,101,0.0,4.0,92,0.00,,,0.00,meteohub,2013-02-22 05:22:00,
2013-02-22 06:27:00,18.9,16.9,29.99,SSW,198,1.0,4.0,92,0.00,,,0.00,meteohub,2013-02-22 05:27:00,
2013-02-22 06:32:00,18.9,16.9,29.99,SSW,208,0.0,3.0,92,0.00,,,0.00,meteohub,2013-02-22 05:32:00,
2013-02-22 06:37:00,18.9,16.9,29.99,SSW,208,1.0,3.0,92,0.00,,,0.00,meteohub,2013-02-22 05:37:00,
2013-02-22 06:42:00,18.9,16.9,29.99,SW,214,0.0,2.0,92,0.00,,,0.00,meteohub,2013-02-22 05:42:00,
2013-02-22 06:47:00,18.9,16.9,29.98,NE,54,0.0,2.0,92,0.00,,,0.00,meteohub,2013-02-22 05:47:00,
2013-02-22 06:52:00,18.9,16.9,29.98,WNW,303,0.0,5.0,92,0.00,,,0.00,meteohub,2013-02-22 05:52:00,
2013-02-22 06:57:00,18.9,16.9,29.99,ESE,123,0.0,5.0,92,0.00,,,0.00,meteohub,2013-02-22 05:57:00,
2013-02-22 07:02:00,18.9,16.9,29.98,South,184,2.0,5.0,92,0.00,,,0.00,meteohub,2013-02-22 06:02:00,
2013-02-22 07:07:00,18.9,16.9,29.99,SSE,159,2.0,4.0,92,0.00,,,0.00,meteohub,2013-02-22 06:07:00,
2013-02-22 07:12:00,18.9,16.9,29.99,NNW,338,0.0,4.0,92,0.00,,,0.00,meteohub,2013-02-22 06:12:00,
2013-02-22 07:17:00,18.9,16.9,29.99,NE,51,0.0,2.0,92,0.00,,,0.00,meteohub,2013-02-22 06:17:00,
2013-02-22 07:22:00,18.9,17.2,29.99,South,177,1.0,3.0,93,0.00,,,0.00,meteohub,2013-02-22 06:22:00,
2013-02-22 07:32:00,18.9,16.9,29.99,SSW,194,1.0,3.0,92,0.00,,,0.00,meteohub,2013-02-22 06:32:00,
2013-02-22 07:42:00,18.9,16.9,29.99,NW,310,0.0,5.0,92,0.00,,,0.00,meteohub,2013-02-22 06:42:00,
2013-02-22 07:47:00,18.9,16.9,29.99,NNW,333,2.0,5.0,92,0.00,,,0.00,meteohub,2013-02-22 06:47:00,
2013-02-22 07:57:00,18.9,16.9,29.99,NNE,17,0.0,5.0,92,0.00,,,0.00,meteohub,2013-02-22 06:57:00,
2013-02-22 08:02:00,18.9,16.9,29.99,SSE,164,0.0,4.0,92,0.00,,,0.00,meteohub,2013-02-22 07:02:00,
2013-02-22 08:12:00,18.9,16.9,29.99,SSW,195,4.0,6.0,92,0.00,,,0.00,meteohub,2013-02-22 07:12:00,
2013-02-22 08:22:00,18.7,16.7,29.99,SSW,207,0.0,5.0,92,0.00,,,0.00,meteohub,2013-02-22 07:22:00,
2013-02-22 08:32:00,18.9,16.9,29.99,SSE,168,1.0,5.0,92,0.00,,,0.00,meteohub,2013-02-22 07:32:00,
2013-02-22 08:37:00,18.9,16.9,29.99,SSW,206,0.0,5.0,92,0.00,,,0.00,meteohub,2013-02-22 07:37:00,
2013-02-22 08:42:00,18.9,16.9,29.98,East,101,1.0,5.0,92,0.00,,,0.00,meteohub,2013-02-22 07:42:00,
2013-02-22 08:52:00,19.0,16.9,29.98,North,0,4.0,6.0,91,0.00,,,0.00,meteohub,2013-02-22 07:52:00,
2013-02-22 09:02:00,19.2,17.1,29.99,SSW,196,1.0,5.0,91,0.00,,,0.00,meteohub,2013-02-22 08:02:00,
2013-02-22 09:12:00,19.6,17.4,29.98,South,173,5.0,5.0,91,0.00,,,0.00,meteohub,2013-02-22 08:12:00,
2013-02-22 09:17:00,19.6,17.4,29.98,South,171,1.0,5.0,91,0.00,,,0.00,meteohub,2013-02-22 08:17:00,
2013-02-22 09:22:00,19.6,17.1,29.98,ENE,77,1.0,6.0,90,0.00,,,0.00,meteohub,2013-02-22 08:22:00,
2013-02-22 09:27:00,19.6,17.1,29.98,SSW,194,1.0,6.0,90,0.00,,,0.00,meteohub,2013-02-22 08:27:00,
2013-02-22 09:37:00,19.8,17.1,29.98,NNE,17,1.0,7.0,89,0.00,,,0.00,meteohub,2013-02-22 08:37:00,
2013-02-22 09:47:00,19.8,16.7,29.98,NNW,338,0.0,7.0,88,0.00,,,0.00,meteohub,2013-02-22 08:47:00,
2013-02-22 09:52:00,19.8,16.7,29.98,NNE,23,1.0,6.0,88,0.00,,,0.00,meteohub,2013-02-22 08:52:00,
2013-02-22 09:57:00,19.8,16.7,29.98,SSE,167,0.0,4.0,88,0.00,,,0.00,meteohub,2013-02-22 08:57:00,
2013-02-22 10:02:00,19.9,16.9,29.98,South,178,4.0,4.0,88,0.00,,,0.00,meteohub,2013-02-22 09:02:00,
2013-02-22 10:07:00,19.8,16.5,29.98,SSE,161,2.0,7.0,87,0.00,,,0.00,meteohub,2013-02-22 09:07:00,
2013-02-22 10:12:00,19.8,16.5,29.98,NNW,345,0.0,7.0,87,0.00,,,0.00,meteohub,2013-02-22 09:12:00,
2013-02-22 10:17:00,19.8,16.5,29.98,SSE,162,1.0,7.0,87,0.00,,,0.00,meteohub,2013-02-22 09:17:00,
2013-02-22 10:22:00,19.8,16.5,29.98,WNW,302,0.0,6.0,87,0.00,,,0.00,meteohub,2013-02-22 09:22:00,
2013-02-22 10:27:00,19.8,16.5,29.98,WNW,292,0.0,5.0,87,0.00,,,0.00,meteohub,2013-02-22 09:27:00,
2013-02-22 10:37:00,20.1,17.1,29.97,South,172,1.0,5.0,88,0.00,,,0.00,meteohub,2013-02-22 09:37:00,
2013-02-22 10:42:00,20.1,16.9,29.97,SW,214,2.0,5.0,87,0.00,,,0.00,meteohub,2013-02-22 09:42:00,
2013-02-22 10:47:00,20.3,17.1,29.97,SSE,168,1.0,6.0,87,0.00,,,0.00,meteohub,2013-02-22 09:47:00,
2013-02-22 10:52:00,20.5,17.2,29.97,South,184,2.0,6.0,87,0.00,,,0.00,meteohub,2013-02-22 09:52:00,
2013-02-22 10:57:00,20.7,17.4,29.97,North,0,0.0,5.0,87,0.00,,,0.00,meteohub,2013-02-22 09:57:00,
2013-02-22 11:02:00,20.7,17.1,29.97,South,190,2.0,6.0,86,0.00,,,0.00,meteohub,2013-02-22 10:02:00,
2013-02-22 11:07:00,20.7,16.9,29.97,NE,37,2.0,6.0,85,0.00,,,0.00,meteohub,2013-02-22 10:07:00,
2013-02-22 11:12:00,20.7,17.1,29.97,SSW,211,2.0,6.0,86,0.00,,,0.00,meteohub,2013-02-22 10:12:00,
2013-02-22 11:22:00,20.8,17.1,29.96,South,188,4.0,6.0,85,0.00,,,0.00,meteohub,2013-02-22 10:22:00,
2013-02-22 11:27:00,20.8,17.1,29.96,South,178,2.0,7.0,85,0.00,,,0.00,meteohub,2013-02-22 10:27:00,
2013-02-22 11:37:00,21.2,17.4,29.96,South,189,1.0,7.0,85,0.00,,,0.00,meteohub,2013-02-22 10:37:00,
2013-02-22 11:42:00,21.4,17.2,29.96,SSE,157,2.0,6.0,84,0.00,,,0.00,meteohub,2013-02-22 10:42:00,
2013-02-22 11:52:00,21.4,17.1,29.95,SSW,198,1.0,7.0,83,0.00,,,0.00,meteohub,2013-02-22 10:52:00,
2013-02-22 12:02:00,21.0,16.9,29.95,SSW,202,2.0,8.0,84,0.00,,,0.00,meteohub,2013-02-22 11:02:00,
2013-02-22 12:07:00,20.8,16.7,29.94,SSE,159,2.0,7.0,84,0.00,,,0.00,meteohub,2013-02-22 11:07:00,
2013-02-22 12:12:00,20.8,16.7,29.94,SSE,159,6.0,11.0,84,0.00,,,0.00,meteohub,2013-02-22 11:12:00,
2013-02-22 12:17:00,20.8,17.1,29.94,South,185,4.0,11.0,85,0.00,,,0.00,meteohub,2013-02-22 11:17:00,
2013-02-22 12:22:00,20.8,17.2,29.94,SW,226,6.0,11.0,86,0.00,,,0.00,meteohub,2013-02-22 11:22:00,
2013-02-22 12:32:00,21.4,18.1,29.93,WSW,248,3.0,10.0,87,0.00,,,0.00,meteohub,2013-02-22 11:32:00,
2013-02-22 12:42:00,21.6,18.3,29.93,SSW,195,1.0,9.0,87,0.00,,,0.00,meteohub,2013-02-22 11:42:00,
2013-02-22 12:47:00,21.6,18.3,29.92,SSW,208,2.0,9.0,87,0.00,,,0.00,meteohub,2013-02-22 11:47:00,
2013-02-22 12:57:00,21.6,18.3,29.92,South,188,1.0,8.0,87,0.00,,,0.00,meteohub,2013-02-22 11:57:00,
2013-02-22 13:02:00,21.7,18.7,29.92,SE,146,6.0,8.0,88,0.00,,,0.00,meteohub,2013-02-22 12:02:00,
2013-02-22 13:07:00,21.9,18.9,29.92,SSE,159,6.0,8.0,88,0.00,,,0.00,meteohub,2013-02-22 12:07:00,
2013-02-22 13:12:00,21.9,18.9,29.92,SSE,157,4.0,8.0,88,0.00,,,0.00,meteohub,2013-02-22 12:12:00,
2013-02-22 13:17:00,21.9,18.9,29.92,South,173,4.0,8.0,88,0.00,,,0.00,meteohub,2013-02-22 12:17:00,
2013-02-22 13:22:00,21.9,19.2,29.91,South,187,2.0,9.0,89,0.00,,,0.00,meteohub,2013-02-22 12:22:00,
2013-02-22 13:32:00,22.3,19.8,29.91,South,190,4.0,9.0,90,0.00,,,0.00,meteohub,2013-02-22 12:32:00,
2013-02-22 13:37:00,22.5,19.9,29.91,South,177,3.0,9.0,90,0.00,,,0.00,meteohub,2013-02-22 12:37:00,
2013-02-22 13:42:00,22.5,19.9,29.91,SSE,161,2.0,9.0,90,0.00,,,0.00,meteohub,2013-02-22 12:42:00,
2013-02-22 13:47:00,22.6,20.1,29.90,WNW,282,4.0,9.0,90,0.00,,,0.00,meteohub,2013-02-22 12:47:00,
2013-02-22 13:57:00,22.6,20.1,29.90,SSW,209,2.0,12.0,90,0.00,,,0.00,meteohub,2013-02-22 12:57:00,
2013-02-22 14:02:00,22.6,20.1,29.90,SSW,194,6.0,12.0,90,0.00,,,0.00,meteohub,2013-02-22 13:02:00,
2013-02-22 14:12:00,22.6,20.1,29.89,SSW,207,8.0,12.0,90,0.00,,,0.00,meteohub,2013-02-22 13:12:00,
2013-02-22 14:17:00,22.6,20.5,29.89,South,177,4.0,12.0,91,0.00,,,0.00,meteohub,2013-02-22 13:17:00,
2013-02-22 14:22:00,22.8,20.7,29.89,SSE,165,2.0,12.0,91,0.00,,,0.00,meteohub,2013-02-22 13:22:00,
2013-02-22 14:32:00,22.8,20.3,29.88,North,355,1.0,16.0,90,0.00,,,0.00,meteohub,2013-02-22 13:32:00,
2013-02-22 14:37:00,22.8,20.3,29.88,SSE,165,5.0,10.0,90,0.00,,,0.00,meteohub,2013-02-22 13:37:00,
2013-02-22 14:42:00,22.8,20.3,29.88,SSW,204,0.0,11.0,90,0.00,,,0.00,meteohub,2013-02-22 13:42:00,
2013-02-22 14:52:00,23.0,20.5,29.88,North,5,1.0,11.0,90,0.00,,,0.00,meteohub,2013-02-22 13:52:00,
2013-02-22 15:02:00,23.2,20.5,29.88,SSE,167,4.0,10.0,89,0.00,,,0.00,meteohub,2013-02-22 14:02:00,
2013-02-22 15:12:00,23.4,20.7,29.88,SSE,162,2.0,10.0,89,0.00,,,0.00,meteohub,2013-02-22 14:12:00,
2013-02-22 15:22:00,23.2,20.7,29.87,South,185,3.0,10.0,90,0.00,,,0.00,meteohub,2013-02-22 14:22:00,
2013-02-22 15:27:00,23.2,20.5,29.87,South,190,2.0,12.0,89,0.00,,,0.00,meteohub,2013-02-22 14:27:00,
2013-02-22 15:32:00,23.4,20.7,29.87,South,179,4.0,12.0,89,0.00,,,0.00,meteohub,2013-02-22 14:32:00,
2013-02-22 15:42:00,23.4,20.7,29.87,SSW,213,2.0,11.0,89,0.00,,,0.00,meteohub,2013-02-22 14:42:00,
2013-02-22 15:52:00,23.4,20.8,29.87,SSW,207,4.0,10.0,90,0.00,,,0.00,meteohub,2013-02-22 14:52:00,
2013-02-22 15:57:00,23.2,21.0,29.87,WSW,255,2.0,10.0,91,0.00,,,0.00,meteohub,2013-02-22 14:57:00,
2013-02-22 16:07:00,23.0,20.8,29.87,SSW,196,2.0,12.0,91,0.00,,,0.00,meteohub,2013-02-22 15:07:00,
2013-02-22 16:12:00,23.0,20.8,29.87,SSW,205,5.0,12.0,91,0.00,,,0.00,meteohub,2013-02-22 15:12:00,
2013-02-22 16:17:00,22.8,20.8,29.87,SSE,150,7.0,10.0,92,0.00,,,0.00,meteohub,2013-02-22 15:17:00,